N220ER KHIO-KHIO
Flight info
| Callsign | N220ER |
|---|---|
| Flight time | 0h 14m |
| Altitude | VFR |
| Route | |
| Aircraft | H60/M-DOV/C |
Departure
| Time | 2026-04-28 22:41 |
|---|---|
| Airport | Portland Hillsboro Airport (KHIO) |
Arrival
| Time | 2026-04-28 22:56 |
|---|---|
| Airport | Portland Hillsboro Airport (KHIO) |
| Time | Latitude | Longitude | Altitude | Speed | Heading |
|---|---|---|---|---|---|
| 2026-04-28 22:32 | 45.53360 | -122.94912 | 202 ft | 0 kts | 1° |
| 2026-04-28 22:36 | 45.53390 | -122.94907 | 211 ft | 6 kts | 23° |
| 2026-04-28 22:37 | 45.53412 | -122.94865 | 211 ft | 5 kts | 71° |
| 2026-04-28 22:37 | 45.53426 | -122.94805 | 201 ft | 6 kts | 72° |
| 2026-04-28 22:37 | 45.53431 | -122.94776 | 203 ft | 0 kts | 79° |
| 2026-04-28 22:39 | 45.53430 | -122.94754 | 208 ft | 3 kts | 84° |
| 2026-04-28 22:39 | 45.53424 | -122.94706 | 212 ft | 6 kts | 90° |
| 2026-04-28 22:39 | 45.53414 | -122.94642 | 209 ft | 6 kts | 79° |
| 2026-04-28 22:40 | 45.53432 | -122.94586 | 214 ft | 6 kts | 64° |
| 2026-04-28 22:40 | 45.53449 | -122.94551 | 216 ft | 1 kts | 64° |
| 2026-04-28 22:40 | 45.53481 | -122.94488 | 215 ft | 9 kts | 62° |
| 2026-04-28 22:40 | 45.53644 | -122.94574 | 269 ft | 56 kts | 344° |
| 2026-04-28 22:41 | 45.54128 | -122.95042 | 650 ft | 107 kts | 330° |
| 2026-04-28 22:41 | 45.54822 | -122.95762 | 888 ft | 133 kts | 326° |
| 2026-04-28 22:41 | 45.55546 | -122.96555 | 1254 ft | 130 kts | 323° |
| 2026-04-28 22:41 | 45.56255 | -122.97379 | 1607 ft | 132 kts | 320° |
| 2026-04-28 22:42 | 45.56852 | -122.98360 | 1969 ft | 129 kts | 308° |
| 2026-04-28 22:42 | 45.57195 | -122.99519 | 2319 ft | 134 kts | 290° |
| 2026-04-28 22:42 | 45.57443 | -123.00878 | 2316 ft | 149 kts | 285° |
| 2026-04-28 22:42 | 45.57652 | -123.02380 | 2144 ft | 152 kts | 282° |
| 2026-04-28 22:43 | 45.57727 | -123.03711 | 2548 ft | 120 kts | 269° |
| 2026-04-28 22:43 | 45.57401 | -123.04774 | 3061 ft | 125 kts | 245° |
| 2026-04-28 22:43 | 45.56747 | -123.05770 | 3017 ft | 148 kts | 226° |
| 2026-04-28 22:43 | 45.56015 | -123.06783 | 3020 ft | 141 kts | 227° |
| 2026-04-28 22:44 | 45.55391 | -123.07819 | 2888 ft | 136 kts | 234° |
| 2026-04-28 22:44 | 45.54890 | -123.08963 | 2628 ft | 134 kts | 240° |
| 2026-04-28 22:44 | 45.54382 | -123.09962 | 2680 ft | 118 kts | 236° |
| 2026-04-28 22:44 | 45.53882 | -123.10849 | 2834 ft | 117 kts | 233° |
| 2026-04-28 22:45 | 45.53348 | -123.11786 | 2606 ft | 124 kts | 234° |
| 2026-04-28 22:45 | 45.52896 | -123.12830 | 2404 ft | 124 kts | 243° |
| 2026-04-28 22:45 | 45.52537 | -123.13932 | 2251 ft | 119 kts | 248° |
| 2026-04-28 22:45 | 45.52207 | -123.14927 | 2332 ft | 103 kts | 247° |
| 2026-04-28 22:46 | 45.51933 | -123.15810 | 2551 ft | 94 kts | 250° |
| 2026-04-28 22:46 | 45.51672 | -123.16652 | 2770 ft | 91 kts | 250° |
| 2026-04-28 22:46 | 45.51398 | -123.17460 | 2984 ft | 96 kts | 248° |
| 2026-04-28 22:46 | 45.51112 | -123.18567 | 2383 ft | 141 kts | 257° |
| 2026-04-28 22:47 | 45.51040 | -123.19993 | 1658 ft | 139 kts | 269° |
| 2026-04-28 22:47 | 45.50843 | -123.21301 | 1245 ft | 143 kts | 247° |
| 2026-04-28 22:47 | 45.50116 | -123.22209 | 715 ft | 137 kts | 195° |
| 2026-04-28 22:47 | 45.49305 | -123.22332 | 678 ft | 93 kts | 168° |
| 2026-04-28 22:48 | 45.48880 | -123.22439 | 577 ft | 37 kts | 216° |
| 2026-04-28 22:48 | 45.48720 | -123.22491 | 403 ft | 11 kts | 322° |
| 2026-04-28 22:48 | 45.48783 | -123.22591 | 386 ft | 19 kts | 335° |
| 2026-04-28 22:48 | 45.48894 | -123.22686 | 388 ft | 16 kts | 274° |
| 2026-04-28 22:49 | 45.48946 | -123.22754 | 364 ft | 1 kts | 167° |
| 2026-04-28 22:49 | 45.48941 | -123.22736 | 352 ft | 2 kts | 174° |
| 2026-04-28 22:49 | 45.48931 | -123.22725 | 334 ft | 1 kts | 180° |
| 2026-04-28 22:49 | 45.48918 | -123.22707 | 344 ft | 12 kts | 160° |
| 2026-04-28 22:50 | 45.48752 | -123.22295 | 572 ft | 80 kts | 123° |
| 2026-04-28 22:50 | 45.48533 | -123.21349 | 1085 ft | 118 kts | 110° |
| 2026-04-28 22:50 | 45.48204 | -123.20253 | 1730 ft | 119 kts | 115° |
| 2026-04-28 22:50 | 45.47822 | -123.19191 | 2294 ft | 132 kts | 119° |
| 2026-04-28 22:51 | 45.47338 | -123.17918 | 2169 ft | 159 kts | 120° |
| 2026-04-28 22:51 | 45.46764 | -123.16479 | 1977 ft | 172 kts | 121° |
| 2026-04-28 22:51 | 45.46167 | -123.14997 | 1958 ft | 172 kts | 119° |
| 2026-04-28 22:51 | 45.45806 | -123.13371 | 1913 ft | 173 kts | 105° |
| 2026-04-28 22:52 | 45.45520 | -123.11689 | 1790 ft | 180 kts | 104° |
| 2026-04-28 22:52 | 45.45233 | -123.09944 | 1560 ft | 177 kts | 104° |
| 2026-04-28 22:52 | 45.44976 | -123.08309 | 1748 ft | 164 kts | 102° |
| 2026-04-28 22:52 | 45.44848 | -123.06700 | 1883 ft | 164 kts | 95° |
| 2026-04-28 22:53 | 45.44721 | -123.05103 | 1946 ft | 166 kts | 101° |
| 2026-04-28 22:53 | 45.44233 | -123.03614 | 1951 ft | 167 kts | 122° |
| 2026-04-28 22:53 | 45.43611 | -123.02267 | 2169 ft | 156 kts | 126° |
| 2026-04-28 22:53 | 45.43193 | -123.00869 | 2344 ft | 157 kts | 108° |
| 2026-04-28 22:54 | 45.43172 | -122.99288 | 2160 ft | 165 kts | 84° |
| 2026-04-28 22:54 | 45.43520 | -122.97701 | 1842 ft | 169 kts | 70° |
| 2026-04-28 22:54 | 45.44284 | -122.96526 | 1429 ft | 164 kts | 34° |
| 2026-04-28 22:54 | 45.44907 | -122.95367 | 1468 ft | 143 kts | 81° |
| 2026-04-28 22:55 | 45.44744 | -122.94012 | 1407 ft | 144 kts | 117° |
| 2026-04-28 22:55 | 45.44251 | -122.93025 | 1203 ft | 110 kts | 196° |
| 2026-04-28 22:55 | 45.43566 | -122.93468 | 623 ft | 128 kts | 236° |
| 2026-04-28 22:55 | 45.42947 | -122.94103 | 290 ft | 71 kts | 227° |
| 2026-04-28 22:56 | 45.42744 | -122.94319 | 195 ft | 14 kts | 227° |
| 2026-04-28 22:56 | 45.42725 | -122.94346 | 150 ft | 1 kts | 226° |
| 2026-04-28 22:56 | 45.42715 | -122.94362 | 154 ft | 9 kts | 218° |
| 2026-04-28 22:56 | 45.42611 | -122.94467 | 200 ft | 22 kts | 215° |
| 2026-04-28 22:57 | 45.42565 | -122.94698 | 274 ft | 42 kts | 274° |
| 2026-04-28 22:57 | 45.42837 | -122.94920 | 542 ft | 55 kts | 13° |
| 2026-04-28 22:57 | 45.43267 | -122.94805 | 636 ft | 69 kts | 40° |
| 2026-04-28 22:57 | 45.43661 | -122.94442 | 638 ft | 70 kts | 54° |
| 2026-04-28 22:58 | 45.43591 | -122.93845 | 514 ft | 75 kts | 141° |
| 2026-04-28 22:58 | 45.43173 | -122.93894 | 367 ft | 54 kts | 224° |
| 2026-04-28 22:58 | 45.42994 | -122.94078 | 204 ft | 14 kts | 220° |
| 2026-04-28 22:58 | 45.42989 | -122.94080 | 168 ft | 3 kts | 218° |
| 2026-04-28 22:59 | 45.42988 | -122.94081 | 168 ft | 0 kts | 225° |
| 2026-04-28 22:59 | 45.42988 | -122.94082 | 171 ft | 1 kts | 223° |
| 2026-04-28 22:59 | 45.42988 | -122.94081 | 164 ft | 1 kts | 225° |
| 2026-04-28 22:59 | 45.42981 | -122.94089 | 154 ft | 4 kts | 218° |
| 2026-04-28 23:00 | 45.42978 | -122.94093 | 154 ft | 1 kts | 217° |
| 2026-04-28 23:00 | 45.42966 | -122.94105 | 161 ft | 3 kts | 221° |
| 2026-04-28 23:00 | 45.42945 | -122.94124 | 161 ft | 1 kts | 227° |
| 2026-04-28 23:00 | 45.42946 | -122.94124 | 162 ft | 0 kts | 218° |
| 2026-04-28 23:01 | 45.42946 | -122.94125 | 162 ft | 1 kts | 218° |
| 2026-04-28 23:01 | 45.42883 | -122.94190 | 223 ft | 31 kts | 214° |
| 2026-04-28 23:01 | 45.42538 | -122.94528 | 506 ft | 90 kts | 204° |
| 2026-04-28 23:01 | 45.41971 | -122.94679 | 1205 ft | 97 kts | 159° |
| 2026-04-28 23:02 | 45.41660 | -122.93605 | 1354 ft | 140 kts | 87° |
| 2026-04-28 23:02 | 45.41759 | -122.92210 | 1537 ft | 143 kts | 71° |
| 2026-04-28 23:02 | 45.42344 | -122.91082 | 1720 ft | 144 kts | 39° |
| 2026-04-28 23:02 | 45.43278 | -122.90515 | 1727 ft | 150 kts | 17° |
| 2026-04-28 23:03 | 45.44267 | -122.89986 | 1734 ft | 154 kts | 23° |
| 2026-04-28 23:03 | 45.44978 | -122.88806 | 1503 ft | 165 kts | 64° |
| 2026-04-28 23:03 | 45.45033 | -122.87243 | 1494 ft | 151 kts | 98° |
| 2026-04-28 23:03 | 45.44639 | -122.85937 | 1816 ft | 139 kts | 120° |
| 2026-04-28 23:04 | 45.44070 | -122.84734 | 1942 ft | 156 kts | 126° |
| 2026-04-28 23:04 | 45.43133 | -122.81844 | 1489 ft | 168 kts | 98° |
| 2026-04-28 23:04 | 45.43317 | -122.80220 | 1042 ft | 167 kts | 72° |
| 2026-04-28 23:05 | 45.43708 | -122.78741 | 1011 ft | 152 kts | 70° |
| 2026-04-28 23:05 | 45.44098 | -122.77410 | 1158 ft | 141 kts | 68° |
| 2026-04-28 23:05 | 45.44463 | -122.76120 | 1343 ft | 143 kts | 68° |
| 2026-04-28 23:05 | 45.44882 | -122.74816 | 1380 ft | 148 kts | 64° |
| 2026-04-28 23:06 | 45.45324 | -122.73465 | 1266 ft | 153 kts | 65° |
| 2026-04-28 23:06 | 45.45739 | -122.72071 | 1109 ft | 151 kts | 72° |
| 2026-04-28 23:06 | 45.45815 | -122.70603 | 1139 ft | 145 kts | 91° |
| 2026-04-28 23:06 | 45.45783 | -122.69223 | 1450 ft | 134 kts | 92° |
| 2026-04-28 23:07 | 45.45781 | -122.67849 | 1517 ft | 146 kts | 90° |
| 2026-04-28 23:07 | 45.45810 | -122.66399 | 1257 ft | 144 kts | 88° |
| 2026-04-28 23:07 | 45.45918 | -122.65034 | 1268 ft | 137 kts | 82° |
| 2026-04-28 23:07 | 45.46201 | -122.63749 | 1362 ft | 142 kts | 68° |
| 2026-04-28 23:08 | 45.46771 | -122.62552 | 1126 ft | 148 kts | 53° |
| 2026-04-28 23:08 | 45.47320 | -122.61372 | 1090 ft | 138 kts | 59° |
| 2026-04-28 23:08 | 45.47795 | -122.60203 | 1201 ft | 137 kts | 60° |
| 2026-04-28 23:08 | 45.48282 | -122.59002 | 1164 ft | 143 kts | 59° |
| 2026-04-28 23:09 | 45.48808 | -122.57782 | 1017 ft | 143 kts | 57° |
| 2026-04-28 23:09 | 45.49377 | -122.56637 | 1013 ft | 140 kts | 55° |
| 2026-04-28 23:09 | 45.49861 | -122.55448 | 1126 ft | 139 kts | 63° |
| 2026-04-28 23:09 | 45.50259 | -122.54168 | 1171 ft | 144 kts | 66° |
| 2026-04-28 23:10 | 45.50539 | -122.52805 | 1176 ft | 142 kts | 77° |
| 2026-04-28 23:10 | 45.50722 | -122.51439 | 1294 ft | 141 kts | 80° |
| 2026-04-28 23:10 | 45.50902 | -122.50054 | 1307 ft | 146 kts | 78° |
| 2026-04-28 23:10 | 45.51118 | -122.48628 | 1258 ft | 148 kts | 77° |
| 2026-04-28 23:11 | 45.51447 | -122.47309 | 1225 ft | 139 kts | 56° |
| 2026-04-28 23:11 | 45.52247 | -122.46449 | 1051 ft | 144 kts | 32° |
| 2026-04-28 23:11 | 45.53222 | -122.46172 | 958 ft | 142 kts | 7° |
| 2026-04-28 23:11 | 45.54207 | -122.46035 | 922 ft | 143 kts | 17° |
| 2026-04-28 23:12 | 45.54818 | -122.45095 | 781 ft | 132 kts | 76° |
| 2026-04-28 23:12 | 45.54926 | -122.43847 | 668 ft | 122 kts | 99° |
| 2026-04-28 23:12 | 45.54909 | -122.42724 | 541 ft | 111 kts | 95° |
| 2026-04-28 23:12 | 45.54921 | -122.41671 | 336 ft | 97 kts | 92° |
| 2026-04-28 23:13 | 45.54937 | -122.40867 | 207 ft | 62 kts | 96° |
| 2026-04-28 23:13 | 45.54937 | -122.40396 | 119 ft | 34 kts | 98° |
| 2026-04-28 23:13 | 45.54938 | -122.40158 | 70 ft | 17 kts | 96° |
| 2026-04-28 23:13 | 45.54961 | -122.40081 | 55 ft | 8 kts | 25° |
| 2026-04-28 23:14 | 45.54990 | -122.40065 | 56 ft | 4 kts | 356° |
| 2026-04-28 23:14 | 45.55017 | -122.39951 | 57 ft | 12 kts | 94° |
| 2026-04-28 23:14 | 45.55019 | -122.39853 | 55 ft | 12 kts | 101° |
| 2026-04-28 23:14 | 45.55018 | -122.39731 | 53 ft | 13 kts | 94° |
| 2026-04-28 23:15 | 45.55021 | -122.39662 | 39 ft | 3 kts | 97° |
| 2026-04-28 23:15 | 45.55019 | -122.39574 | 36 ft | 5 kts | 89° |
| 2026-04-28 23:15 | 45.55042 | -122.39545 | 35 ft | 5 kts | 0° |
| 2026-04-28 23:15 | 45.55046 | -122.39545 | 35 ft | 0 kts | 0° |
| 2026-04-28 23:16 | 45.55047 | -122.39545 | 35 ft | 0 kts | 0° |
| 2026-04-28 23:18 | 45.55061 | -122.39554 | 36 ft | 5 kts | 292° |
| 2026-04-28 23:18 | 45.55047 | -122.39570 | 36 ft | 2 kts | 183° |
| 2026-04-28 23:18 | 45.55039 | -122.39571 | 36 ft | 0 kts | 184° |
| 2026-04-28 23:18 | 45.55024 | -122.39610 | 42 ft | 8 kts | 249° |
| 2026-04-28 23:19 | 45.55023 | -122.39694 | 48 ft | 11 kts | 256° |
| 2026-04-28 23:19 | 45.55017 | -122.39825 | 51 ft | 15 kts | 270° |
| 2026-04-28 23:19 | 45.55016 | -122.39980 | 50 ft | 15 kts | 271° |
| 2026-04-28 23:19 | 45.55013 | -122.40126 | 47 ft | 15 kts | 268° |
| 2026-04-28 23:20 | 45.55013 | -122.40249 | 46 ft | 10 kts | 271° |
| 2026-04-28 23:20 | 45.55005 | -122.40347 | 44 ft | 11 kts | 275° |
| 2026-04-28 23:20 | 45.55007 | -122.40479 | 42 ft | 16 kts | 273° |
| 2026-04-28 23:20 | 45.55007 | -122.40647 | 41 ft | 18 kts | 268° |
| 2026-04-28 23:21 | 45.55005 | -122.40811 | 41 ft | 14 kts | 270° |
| 2026-04-28 23:21 | 45.55000 | -122.40953 | 38 ft | 13 kts | 277° |
| 2026-04-28 23:21 | 45.54997 | -122.41084 | 40 ft | 14 kts | 282° |
| 2026-04-28 23:21 | 45.54922 | -122.41111 | 37 ft | 21 kts | 143° |
| 2026-04-28 23:22 | 45.54930 | -122.40837 | 64 ft | 36 kts | 105° |
| 2026-04-28 23:22 | 45.54933 | -122.40568 | 153 ft | 46 kts | 102° |
| 2026-04-28 23:22 | 45.54935 | -122.39816 | 420 ft | 66 kts | 96° |
| 2026-04-28 23:22 | 45.54959 | -122.39070 | 656 ft | 84 kts | 89° |
| 2026-04-28 23:23 | 45.55153 | -122.38592 | 774 ft | 90 kts | 47° |
| 2026-04-28 23:23 | 45.55787 | -122.38503 | 709 ft | 98 kts | 336° |
| 2026-04-28 23:23 | 45.56238 | -122.39558 | 785 ft | 98 kts | 282° |
| 2026-04-28 23:23 | 45.56352 | -122.40213 | 777 ft | 103 kts | 282° |
| 2026-04-28 23:24 | 45.56367 | -122.41572 | 702 ft | 104 kts | 256° |
| 2026-04-28 23:24 | 45.55772 | -122.42157 | 524 ft | 115 kts | 184° |
| 2026-04-28 23:24 | 45.55086 | -122.42045 | 667 ft | 87 kts | 137° |
| 2026-04-28 23:24 | 45.54905 | -122.41552 | 588 ft | 89 kts | 88° |
| 2026-04-28 23:25 | 45.54936 | -122.40686 | 157 ft | 81 kts | 99° |
| 2026-04-28 23:25 | 45.54947 | -122.40169 | 47 ft | 23 kts | 101° |
| 2026-04-28 23:25 | 45.54943 | -122.39948 | 114 ft | 51 kts | 87° |
| 2026-04-28 23:25 | 45.54973 | -122.39065 | 559 ft | 121 kts | 88° |
| 2026-04-28 23:26 | 45.55023 | -122.37689 | 831 ft | 153 kts | 88° |
| 2026-04-28 23:26 | 45.55066 | -122.36131 | 1108 ft | 152 kts | 89° |
| 2026-04-28 23:26 | 45.55070 | -122.34570 | 1351 ft | 162 kts | 90° |
| 2026-04-28 23:26 | 45.55073 | -122.32949 | 1367 ft | 164 kts | 90° |
| 2026-04-28 23:27 | 45.55044 | -122.31313 | 1361 ft | 165 kts | 91° |
| 2026-04-28 23:27 | 45.55023 | -122.29689 | 1443 ft | 163 kts | 90° |
| 2026-04-28 23:27 | 45.55052 | -122.28051 | 1478 ft | 178 kts | 88° |
| 2026-04-28 23:27 | 45.55161 | -122.26152 | 1355 ft | 201 kts | 84° |
| 2026-04-28 23:28 | 45.55340 | -122.24254 | 1234 ft | 185 kts | 81° |
| 2026-04-28 23:28 | 45.55610 | -122.22476 | 1210 ft | 185 kts | 75° |
| 2026-04-28 23:28 | 45.56009 | -122.20770 | 1246 ft | 177 kts | 70° |
| 2026-04-28 23:28 | 45.56465 | -122.19169 | 1469 ft | 171 kts | 66° |
| 2026-04-28 23:29 | 45.56986 | -122.17633 | 1629 ft | 175 kts | 64° |
| 2026-04-28 23:29 | 45.57517 | -122.16032 | 1592 ft | 182 kts | 63° |
| 2026-04-28 23:29 | 45.58058 | -122.14414 | 1646 ft | 177 kts | 65° |
| 2026-04-28 23:29 | 45.58553 | -122.12848 | 1917 ft | 171 kts | 64° |
| 2026-04-28 23:30 | 45.59044 | -122.11348 | 2196 ft | 167 kts | 65° |
| 2026-04-28 23:30 | 45.59491 | -122.09783 | 2380 ft | 173 kts | 68° |
| 2026-04-28 23:30 | 45.60017 | -122.08192 | 2364 ft | 182 kts | 62° |
| 2026-04-28 23:30 | 45.60600 | -122.06602 | 2104 ft | 178 kts | 62° |
| 2026-04-28 23:31 | 45.61166 | -122.05086 | 2071 ft | 170 kts | 62° |
| 2026-04-28 23:31 | 45.61688 | -122.03571 | 1955 ft | 170 kts | 65° |
| 2026-04-28 23:31 | 45.62156 | -122.02021 | 1911 ft | 169 kts | 66° |
| 2026-04-28 23:31 | 45.62601 | -122.00524 | 1823 ft | 154 kts | 66° |
| 2026-04-28 23:32 | 45.63035 | -121.99237 | 1939 ft | 134 kts | 63° |
| 2026-04-28 23:32 | 45.63434 | -121.98037 | 1870 ft | 145 kts | 64° |
| 2026-04-28 23:32 | 45.63991 | -121.96647 | 855 ft | 169 kts | 57° |
| 2026-04-28 23:32 | 45.64430 | -121.95245 | 876 ft | 142 kts | 73° |
| 2026-04-28 23:33 | 45.64688 | -121.93894 | 768 ft | 137 kts | 74° |
| 2026-04-28 23:33 | 45.65102 | -121.92779 | 764 ft | 120 kts | 55° |
| 2026-04-28 23:33 | 45.65604 | -121.91859 | 768 ft | 113 kts | 52° |
| 2026-04-28 23:33 | 45.66068 | -121.91059 | 753 ft | 99 kts | 48° |
| 2026-04-28 23:34 | 45.66593 | -121.90511 | 724 ft | 87 kts | 35° |
| 2026-04-28 23:34 | 45.66992 | -121.89961 | 614 ft | 72 kts | 43° |
| 2026-04-28 23:34 | 45.67306 | -121.89461 | 546 ft | 67 kts | 68° |
| 2026-04-28 23:34 | 45.67490 | -121.88932 | 489 ft | 56 kts | 78° |
| 2026-04-28 23:35 | 45.67564 | -121.88464 | 383 ft | 37 kts | 82° |
| 2026-04-28 23:35 | 45.67605 | -121.88250 | 320 ft | 14 kts | 87° |
| 2026-04-28 23:35 | 45.67628 | -121.88114 | 312 ft | 13 kts | 81° |
| 2026-04-28 23:35 | 45.67650 | -121.87995 | 313 ft | 13 kts | 82° |
| 2026-04-28 23:36 | 45.67667 | -121.87917 | 312 ft | 6 kts | 88° |
| 2026-04-28 23:36 | 45.67671 | -121.87872 | 314 ft | 3 kts | 140° |
| 2026-04-28 23:36 | 45.67660 | -121.87855 | 307 ft | 3 kts | 166° |
| 2026-04-28 23:36 | 45.67644 | -121.87847 | 302 ft | 2 kts | 172° |
| 2026-04-28 23:37 | 45.67638 | -121.87844 | 295 ft | 0 kts | 171° |
| 2026-04-28 23:46 | 45.67608 | -121.87836 | 307 ft | 6 kts | 177° |
| 2026-04-28 23:46 | 45.67602 | -121.87823 | 308 ft | 2 kts | 184° |
| 2026-04-28 23:47 | 45.67596 | -121.87812 | 311 ft | 2 kts | 190° |
| 2026-04-28 23:47 | 45.67601 | -121.87807 | 310 ft | 1 kts | 225° |
| 2026-04-28 23:47 | 45.67597 | -121.87823 | 310 ft | 3 kts | 333° |
| 2026-04-28 23:47 | 45.67612 | -121.87829 | 304 ft | 2 kts | 340° |
| 2026-04-28 23:48 | 45.67613 | -121.87817 | 309 ft | 1 kts | 346° |
| 2026-04-28 23:48 | 45.67617 | -121.87814 | 308 ft | 3 kts | 352° |
| 2026-04-28 23:48 | 45.67624 | -121.87837 | 302 ft | 1 kts | 352° |
| 2026-04-28 23:48 | 45.67631 | -121.87843 | 294 ft | 1 kts | 348° |
| 2026-04-28 23:49 | 45.67631 | -121.87844 | 294 ft | 0 kts | 348° |
| 2026-04-28 23:54 | 45.67639 | -121.87842 | 304 ft | 2 kts | 349° |
| 2026-04-28 23:54 | 45.67662 | -121.87820 | 305 ft | 9 kts | 7° |
| 2026-04-28 23:54 | 45.67741 | -121.87562 | 458 ft | 46 kts | 65° |
| 2026-04-28 23:55 | 45.67895 | -121.86977 | 984 ft | 85 kts | 71° |
| 2026-04-28 23:55 | 45.68159 | -121.86062 | 1847 ft | 109 kts | 69° |
| 2026-04-28 23:55 | 45.68458 | -121.85027 | 2929 ft | 116 kts | 67° |
| 2026-04-28 23:55 | 45.68756 | -121.83925 | 3520 ft | 124 kts | 69° |
| 2026-04-28 23:56 | 45.69063 | -121.82710 | 3932 ft | 135 kts | 69° |
| 2026-04-28 23:56 | 45.69339 | -121.81401 | 4118 ft | 144 kts | 74° |
| 2026-04-28 23:56 | 45.69521 | -121.79929 | 3996 ft | 155 kts | 81° |
| 2026-04-28 23:56 | 45.69683 | -121.78374 | 3724 ft | 160 kts | 82° |
| 2026-04-28 23:57 | 45.69842 | -121.76781 | 3418 ft | 163 kts | 82° |
| 2026-04-28 23:57 | 45.69995 | -121.75167 | 3124 ft | 163 kts | 83° |
| 2026-04-28 23:57 | 45.70138 | -121.73588 | 3019 ft | 158 kts | 82° |
| 2026-04-28 23:57 | 45.70256 | -121.72091 | 3195 ft | 149 kts | 83° |
| 2026-04-28 23:58 | 45.70338 | -121.70602 | 3370 ft | 153 kts | 86° |
| 2026-04-28 23:58 | 45.70407 | -121.68906 | 3404 ft | 187 kts | 88° |
| 2026-04-28 23:58 | 45.70486 | -121.66971 | 3626 ft | 200 kts | 86° |
| 2026-04-28 23:58 | 45.70516 | -121.65043 | 3723 ft | 187 kts | 103° |
| 2026-04-28 23:59 | 45.70073 | -121.63506 | 3473 ft | 153 kts | 151° |
| 2026-04-28 23:59 | 45.69239 | -121.63234 | 3426 ft | 107 kts | 223° |
| 2026-04-28 23:59 | 45.68857 | -121.63916 | 3657 ft | 86 kts | 257° |
| 2026-04-28 23:59 | 45.68741 | -121.64744 | 3796 ft | 85 kts | 262° |
| 2026-04-29 00:00 | 45.68610 | -121.65600 | 4026 ft | 89 kts | 262° |
| 2026-04-29 00:00 | 45.68138 | -121.66214 | 4278 ft | 103 kts | 229° |
| 2026-04-29 00:00 | 45.67375 | -121.66423 | 4310 ft | 116 kts | 202° |
| 2026-04-29 00:00 | 45.66651 | -121.66704 | 4388 ft | 103 kts | 214° |
| 2026-04-29 00:01 | 45.66133 | -121.67291 | 4519 ft | 92 kts | 255° |
| 2026-04-29 00:01 | 45.65854 | -121.68063 | 4610 ft | 84 kts | 274° |
| 2026-04-29 00:01 | 45.65831 | -121.68986 | 4492 ft | 106 kts | 276° |
| 2026-04-29 00:01 | 45.65914 | -121.70121 | 4468 ft | 122 kts | 280° |
| 2026-04-29 00:02 | 45.65832 | -121.71194 | 4762 ft | 101 kts | 227° |
| 2026-04-29 00:02 | 45.65508 | -121.71775 | 5043 ft | 53 kts | 264° |
| 2026-04-29 00:02 | 45.65434 | -121.71963 | 4778 ft | 12 kts | 357° |
| 2026-04-29 00:02 | 45.65569 | -121.71891 | 4536 ft | 7 kts | 303° |
| 2026-04-29 00:03 | 45.65575 | -121.71927 | 4491 ft | 3 kts | 338° |
| 2026-04-29 00:03 | 45.65576 | -121.71928 | 4483 ft | 0 kts | 338° |
| 2026-04-29 00:04 | 45.65586 | -121.71939 | 4499 ft | 4 kts | 322° |
| 2026-04-29 00:04 | 45.65787 | -121.72192 | 4189 ft | 83 kts | 319° |
| 2026-04-29 00:04 | 45.66464 | -121.72746 | 2860 ft | 134 kts | 350° |
| 2026-04-29 00:05 | 45.67463 | -121.72709 | 1545 ft | 151 kts | 26° |
| 2026-04-29 00:05 | 45.68409 | -121.72156 | 816 ft | 142 kts | 9° |
| 2026-04-29 00:05 | 45.69172 | -121.72551 | 725 ft | 95 kts | 289° |
| 2026-04-29 00:05 | 45.69330 | -121.73293 | 657 ft | 78 kts | 280° |
| 2026-04-29 00:06 | 45.69401 | -121.73868 | 622 ft | 48 kts | 281° |
| 2026-04-29 00:06 | 45.69354 | -121.74371 | 459 ft | 49 kts | 272° |
| 2026-04-29 00:06 | 45.69417 | -121.74795 | 510 ft | 32 kts | 28° |
| 2026-04-29 00:06 | 45.69545 | -121.74686 | 209 ft | 15 kts | 95° |
| 2026-04-29 00:07 | 45.69559 | -121.74626 | 185 ft | 1 kts | 102° |
| 2026-04-29 00:07 | 45.69540 | -121.74558 | 192 ft | 13 kts | 109° |
| 2026-04-29 00:07 | 45.69512 | -121.74501 | 191 ft | 4 kts | 116° |
| 2026-04-29 00:07 | 45.69475 | -121.74512 | 230 ft | 23 kts | 201° |
| 2026-04-29 00:08 | 45.69447 | -121.75047 | 655 ft | 103 kts | 287° |
| 2026-04-29 00:08 | 45.69588 | -121.76454 | 875 ft | 171 kts | 281° |
| 2026-04-29 00:08 | 45.69777 | -121.78224 | 888 ft | 181 kts | 278° |
| 2026-04-29 00:08 | 45.69901 | -121.79930 | 1367 ft | 169 kts | 275° |
| 2026-04-29 00:09 | 45.69738 | -121.81404 | 2363 ft | 141 kts | 259° |
| 2026-04-29 00:09 | 45.69374 | -121.82807 | 3054 ft | 157 kts | 252° |
| 2026-04-29 00:09 | 45.68966 | -121.84273 | 3627 ft | 149 kts | 251° |
| 2026-04-29 00:09 | 45.68627 | -121.85512 | 4721 ft | 124 kts | 252° |
| 2026-04-29 00:10 | 45.68304 | -121.86716 | 5584 ft | 135 kts | 253° |
| 2026-04-29 00:10 | 45.67942 | -121.88016 | 5646 ft | 149 kts | 252° |
| 2026-04-29 00:10 | 45.67514 | -121.89493 | 5534 ft | 168 kts | 250° |
| 2026-04-29 00:10 | 45.67020 | -121.91015 | 5648 ft | 169 kts | 248° |
| 2026-04-29 00:11 | 45.66518 | -121.92545 | 5799 ft | 170 kts | 249° |
| 2026-04-29 00:11 | 45.66039 | -121.94083 | 5880 ft | 169 kts | 250° |
| 2026-04-29 00:11 | 45.65136 | -121.97204 | 5910 ft | 170 kts | 251° |